sensor_id;sensor_type;location;lat;lon;timestamp;pressure;altitude;pressure_sealevel;temperature;humidity
57234;BME280;43090;52.604;13.318;2023-08-01T00:00:02;99579.88;;;18.08;100.00
57234;BME280;43090;52.604;13.318;2023-08-01T00:02:29;99578.66;;;17.95;100.00
57234;BME280;43090;52.604;13.318;2023-08-01T00:04:56;99577.06;;;18.01;100.00
57234;BME280;43090;52.604;13.318;2023-08-01T00:07:22;99576.22;;;18.15;100.00
57234;BME280;43090;52.604;13.318;2023-08-01T00:09:50;99564.81;;;18.20;100.00
57234;BME280;43090;52.604;13.318;2023-08-01T00:12:17;99566.97;;;18.10;100.00
57234;BME280;43090;52.604;13.318;2023-08-01T00:14:43;99565.09;;;18.10;100.00
57234;BME280;43090;52.604;13.318;2023-08-01T00:17:10;99562.84;;;17.99;100.00
57234;BME280;43090;52.604;13.318;2023-08-01T00:19:36;99554.72;;;17.99;100.00
57234;BME280;43090;52.604;13.318;2023-08-01T00:22:03;99560.44;;;18.04;100.00
57234;BME280;43090;52.604;13.318;2023-08-01T00:24:30;99558.00;;;17.94;100.00
57234;BME280;43090;52.604;13.318;2023-08-01T00:26:57;99556.63;;;17.75;100.00
57234;BME280;43090;52.604;13.318;2023-08-01T00:29:23;99547.50;;;17.61;100.00
57234;BME280;43090;52.604;13.318;2023-08-01T00:31:50;99544.31;;;17.58;100.00
57234;BME280;43090;52.604;13.318;2023-08-01T00:34:16;99533.88;;;17.70;100.00
57234;BME280;43090;52.604;13.318;2023-08-01T00:36:43;99521.72;;;17.65;100.00
57234;BME280;43090;52.604;13.318;2023-08-01T00:39:09;99513.13;;;17.62;100.00
57234;BME280;43090;52.604;13.318;2023-08-01T00:41:36;99505.97;;;17.69;100.00
57234;BME280;43090;52.604;13.318;2023-08-01T00:44:02;99505.19;;;17.60;100.00
57234;BME280;43090;52.604;13.318;2023-08-01T00:46:29;99503.22;;;17.54;100.00
57234;BME280;43090;52.604;13.318;2023-08-01T00:48:55;99502.00;;;17.27;100.00
57234;BME280;43090;52.604;13.318;2023-08-01T00:51:26;99510.91;;;17.51;100.00
57234;BME280;43090;52.604;13.318;2023-08-01T00:53:53;99513.69;;;17.57;100.00
57234;BME280;43090;52.604;13.318;2023-08-01T00:56:20;99508.72;;;17.31;100.00
57234;BME280;43090;52.604;13.318;2023-08-01T00:58:46;99504.00;;;17.48;100.00
57234;BME280;43090;52.604;13.318;2023-08-01T01:01:13;99506.97;;;17.53;100.00
57234;BME280;43090;52.604;13.318;2023-08-01T01:03:39;99497.75;;;17.09;100.00
57234;BME280;43090;52.604;13.318;2023-08-01T01:06:09;99493.06;;;17.41;100.00
57234;BME280;43090;52.604;13.318;2023-08-01T01:08:37;99492.16;;;17.64;100.00
57234;BME280;43090;52.604;13.318;2023-08-01T01:11:04;99484.19;;;17.47;100.00
57234;BME280;43090;52.604;13.318;2023-08-01T01:13:30;99492.59;;;17.38;100.00
57234;BME280;43090;52.604;13.318;2023-08-01T01:15:57;99486.44;;;17.44;100.00
57234;BME280;43090;52.604;13.318;2023-08-01T01:18:23;99481.72;;;17.61;100.00
57234;BME280;43090;52.604;13.318;2023-08-01T01:20:49;99477.66;;;17.42;100.00
57234;BME280;43090;52.604;13.318;2023-08-01T01:23:16;99452.00;;;17.38;100.00
57234;BME280;43090;52.604;13.318;2023-08-01T01:25:43;99430.25;;;17.16;100.00
57234;BME280;43090;52.604;13.318;2023-08-01T01:28:11;99417.75;;;17.30;100.00
57234;BME280;43090;52.604;13.318;2023-08-01T01:30:38;99420.38;;;17.23;100.00
57234;BME280;43090;52.604;13.318;2023-08-01T01:33:06;99414.13;;;17.38;100.00
57234;BME280;43090;52.604;13.318;2023-08-01T01:51:48;99416.09;;;16.68;100.00
57234;BME280;43090;52.604;13.318;2023-08-01T01:54:15;99408.47;;;16.94;100.00
57234;BME280;43090;52.604;13.318;2023-08-01T01:56:41;99397.84;;;17.08;100.00
57234;BME280;43090;52.604;13.318;2023-08-01T01:59:08;99390.88;;;17.43;100.00
57234;BME280;43090;52.604;13.318;2023-08-01T02:01:34;99392.09;;;17.11;100.00
57234;BME280;43090;52.604;13.318;2023-08-01T02:04:01;99372.41;;;17.17;100.00
57234;BME280;43090;52.604;13.318;2023-08-01T02:06:27;99383.06;;;17.34;100.00
57234;BME280;43090;52.604;13.318;2023-08-01T02:08:54;99367.56;;;17.27;100.00
57234;BME280;43090;52.604;13.318;2023-08-01T02:11:20;99355.75;;;17.13;100.00
57234;BME280;43090;52.604;13.318;2023-08-01T02:13:47;99346.88;;;17.35;100.00
57234;BME280;43090;52.604;13.318;2023-08-01T02:16:13;99352.28;;;17.20;100.00
57234;BME280;43090;52.604;13.318;2023-08-01T02:18:40;99339.84;;;17.55;100.00
57234;BME280;43090;52.604;13.318;2023-08-01T02:21:06;99342.88;;;17.30;100.00
57234;BME280;43090;52.604;13.318;2023-08-01T02:23:33;99335.28;;;17.56;100.00
57234;BME280;43090;52.604;13.318;2023-08-01T02:26:03;99332.75;;;17.69;100.00
57234;BME280;43090;52.604;13.318;2023-08-01T02:28:29;99340.53;;;17.79;100.00
57234;BME280;43090;52.604;13.318;2023-08-01T02:38:17;99330.22;;;17.68;100.00
57234;BME280;43090;52.604;13.318;2023-08-01T02:40:43;99319.22;;;17.54;100.00
57234;BME280;43090;52.604;13.318;2023-08-01T02:43:10;99307.25;;;17.63;100.00
57234;BME280;43090;52.604;13.318;2023-08-01T02:45:36;99322.97;;;17.53;100.00
57234;BME280;43090;52.604;13.318;2023-08-01T02:48:03;99302.31;;;17.67;100.00
57234;BME280;43090;52.604;13.318;2023-08-01T02:50:29;99308.16;;;17.34;100.00
57234;BME280;43090;52.604;13.318;2023-08-01T02:52:56;99312.09;;;17.17;100.00
57234;BME280;43090;52.604;13.318;2023-08-01T02:55:22;99316.28;;;17.19;100.00
57234;BME280;43090;52.604;13.318;2023-08-01T02:57:49;99302.56;;;17.21;100.00
57234;BME280;43090;52.604;13.318;2023-08-01T03:00:15;99300.31;;;17.39;100.00
57234;BME280;43090;52.604;13.318;2023-08-01T03:02:45;99288.47;;;17.40;100.00
57234;BME280;43090;52.604;13.318;2023-08-01T03:05:12;99302.19;;;17.39;100.00
57234;BME280;43090;52.604;13.318;2023-08-01T03:07:38;99294.06;;;17.39;100.00
57234;BME280;43090;52.604;13.318;2023-08-01T03:10:05;99289.38;;;17.62;100.00
57234;BME280;43090;52.604;13.318;2023-08-01T03:12:34;99301.06;;;17.48;100.00
57234;BME280;43090;52.604;13.318;2023-08-01T03:15:04;99289.38;;;17.47;100.00
57234;BME280;43090;52.604;13.318;2023-08-01T03:17:30;99283.69;;;17.57;100.00
57234;BME280;43090;52.604;13.318;2023-08-01T03:19:57;99285.72;;;17.55;100.00
57234;BME280;43090;52.604;13.318;2023-08-01T03:22:24;99272.66;;;17.59;100.00
57234;BME280;43090;52.604;13.318;2023-08-01T03:24:50;99273.94;;;17.63;100.00
57234;BME280;43090;52.604;13.318;2023-08-01T03:27:17;99272.72;;;17.65;100.00
57234;BME280;43090;52.604;13.318;2023-08-01T03:29:44;99264.88;;;17.34;100.00
57234;BME280;43090;52.604;13.318;2023-08-01T03:32:10;99247.06;;;17.40;100.00
57234;BME280;43090;52.604;13.318;2023-08-01T03:34:37;99259.94;;;17.38;100.00
57234;BME280;43090;52.604;13.318;2023-08-01T03:37:05;99251.88;;;17.44;100.00
57234;BME280;43090;52.604;13.318;2023-08-01T03:39:32;99253.69;;;17.37;100.00
57234;BME280;43090;52.604;13.318;2023-08-01T03:41:58;99262.38;;;17.54;100.00
57234;BME280;43090;52.604;13.318;2023-08-01T03:44:25;99249.03;;;17.68;100.00
57234;BME280;43090;52.604;13.318;2023-08-01T03:46:51;99242.19;;;17.72;100.00
57234;BME280;43090;52.604;13.318;2023-08-01T03:49:18;99262.38;;;17.54;100.00
57234;BME280;43090;52.604;13.318;2023-08-01T03:51:44;99251.88;;;17.44;100.00
57234;BME280;43090;52.604;13.318;2023-08-01T03:54:13;99241.81;;;17.38;100.00
57234;BME280;43090;52.604;13.318;2023-08-01T03:56:40;99246.97;;;17.70;100.00
57234;BME280;43090;52.604;13.318;2023-08-01T03:59:11;99257.31;;;17.66;100.00
57234;BME280;43090;52.604;13.318;2023-08-01T04:01:38;99246.63;;;17.58;100.00
57234;BME280;43090;52.604;13.318;2023-08-01T04:04:04;99228.28;;;17.38;100.00
57234;BME280;43090;52.604;13.318;2023-08-01T04:06:31;99238.03;;;17.54;100.00
57234;BME280;43090;52.604;13.318;2023-08-01T04:08:58;99241.59;;;17.76;100.00
57234;BME280;43090;52.604;13.318;2023-08-01T04:11:26;99238.69;;;17.78;100.00
57234;BME280;43090;52.604;13.318;2023-08-01T04:13:53;99235.16;;;17.77;100.00
57234;BME280;43090;52.604;13.318;2023-08-01T04:16:20;99223.56;;;17.62;100.00
57234;BME280;43090;52.604;13.318;2023-08-01T04:18:46;99229.91;;;17.54;100.00
57234;BME280;43090;52.604;13.318;2023-08-01T04:21:14;99246.25;;;17.82;100.00
57234;BME280;43090;52.604;13.318;2023-08-01T04:23:41;99230.56;;;17.56;100.00
57234;BME280;43090;52.604;13.318;2023-08-01T04:26:07;99235.63;;;17.81;100.00
57234;BME280;43090;52.604;13.318;2023-08-01T04:28:35;99237.75;;;17.86;100.00
57234;BME280;43090;52.604;13.318;2023-08-01T04:31:02;99229.75;;;17.56;100.00
57234;BME280;43090;52.604;13.318;2023-08-01T04:33:29;99239.28;;;17.73;100.00
57234;BME280;43090;52.604;13.318;2023-08-01T04:35:55;99236.59;;;17.73;100.00
57234;BME280;43090;52.604;13.318;2023-08-01T04:38:22;99217.91;;;17.78;100.00
57234;BME280;43090;52.604;13.318;2023-08-01T04:40:48;99210.88;;;17.62;100.00
57234;BME280;43090;52.604;13.318;2023-08-01T04:43:15;99211.63;;;17.78;100.00
57234;BME280;43090;52.604;13.318;2023-08-01T04:45:41;99193.91;;;17.75;100.00
57234;BME280;43090;52.604;13.318;2023-08-01T04:48:08;99223.38;;;17.85;100.00
57234;BME280;43090;52.604;13.318;2023-08-01T04:50:34;99212.94;;;17.82;100.00
57234;BME280;43090;52.604;13.318;2023-08-01T04:53:01;99202.13;;;17.82;100.00
57234;BME280;43090;52.604;13.318;2023-08-01T04:55:27;99195.00;;;17.59;100.00
57234;BME280;43090;52.604;13.318;2023-08-01T04:57:54;99196.44;;;17.77;100.00
57234;BME280;43090;52.604;13.318;2023-08-01T05:00:20;99192.31;;;17.81;100.00
57234;BME280;43090;52.604;13.318;2023-08-01T05:02:47;99193.84;;;17.90;100.00
57234;BME280;43090;52.604;13.318;2023-08-01T05:05:14;99184.66;;;18.06;100.00
57234;BME280;43090;52.604;13.318;2023-08-01T05:07:42;99191.34;;;18.10;100.00
57234;BME280;43090;52.604;13.318;2023-08-01T05:10:09;99182.13;;;17.83;100.00
57234;BME280;43090;52.604;13.318;2023-08-01T05:12:36;99176.34;;;17.86;100.00
57234;BME280;43090;52.604;13.318;2023-08-01T05:15:03;99184.19;;;18.03;100.00
57234;BME280;43090;52.604;13.318;2023-08-01T05:17:30;99162.34;;;17.82;100.00
57234;BME280;43090;52.604;13.318;2023-08-01T05:19:56;99165.09;;;17.89;100.00
57234;BME280;43090;52.604;13.318;2023-08-01T05:22:23;99176.47;;;18.00;100.00
57234;BME280;43090;52.604;13.318;2023-08-01T05:24:49;99167.41;;;18.14;100.00
57234;BME280;43090;52.604;13.318;2023-08-01T05:27:16;99152.03;;;18.21;100.00
57234;BME280;43090;52.604;13.318;2023-08-01T05:29:44;99131.06;;;18.02;100.00
57234;BME280;43090;52.604;13.318;2023-08-01T05:32:11;99144.56;;;17.95;100.00
57234;BME280;43090;52.604;13.318;2023-08-01T05:34:37;99134.91;;;18.14;100.00
57234;BME280;43090;52.604;13.318;2023-08-01T05:37:04;99135.34;;;18.18;100.00
57234;BME280;43090;52.604;13.318;2023-08-01T05:39:37;99140.72;;;18.11;100.00
57234;BME280;43090;52.604;13.318;2023-08-01T05:42:05;99158.56;;;18.34;100.00
57234;BME280;43090;52.604;13.318;2023-08-01T05:44:35;99148.31;;;18.22;100.00
57234;BME280;43090;52.604;13.318;2023-08-01T05:47:01;99155.78;;;18.20;100.00
57234;BME280;43090;52.604;13.318;2023-08-01T05:49:28;99126.16;;;17.90;100.00
57234;BME280;43090;52.604;13.318;2023-08-01T05:55:21;99147.75;;;18.05;100.00
57234;BME280;43090;52.604;13.318;2023-08-01T05:57:49;99122.59;;;17.90;100.00
57234;BME280;43090;52.604;13.318;2023-08-01T06:00:19;99126.16;;;17.90;100.00
57234;BME280;43090;52.604;13.318;2023-08-01T06:02:54;99121.78;;;17.89;100.00
57234;BME280;43090;52.604;13.318;2023-08-01T06:05:22;99118.00;;;17.84;100.00
57234;BME280;43090;52.604;13.318;2023-08-01T06:07:49;99158.84;;;18.10;100.00
57234;BME280;43090;52.604;13.318;2023-08-01T06:10:16;99146.72;;;17.85;100.00
57234;BME280;43090;52.604;13.318;2023-08-01T06:12:45;99158.94;;;17.95;100.00
57234;BME280;43090;52.604;13.318;2023-08-01T06:15:15;99131.13;;;17.87;100.00
57234;BME280;43090;52.604;13.318;2023-08-01T06:17:46;99113.97;;;17.73;100.00
57234;BME280;43090;52.604;13.318;2023-08-01T06:20:14;99134.66;;;18.09;100.00
57234;BME280;43090;52.604;13.318;2023-08-01T06:22:44;99143.16;;;18.06;100.00
57234;BME280;43090;52.604;13.318;2023-08-01T06:25:13;99125.69;;;18.08;100.00
57234;BME280;43090;52.604;13.318;2023-08-01T06:27:40;99131.59;;;18.19;100.00
57234;BME280;43090;52.604;13.318;2023-08-01T06:30:07;99113.53;;;17.97;100.00
57234;BME280;43090;52.604;13.318;2023-08-01T06:32:34;99139.34;;;18.22;100.00
57234;BME280;43090;52.604;13.318;2023-08-01T06:35:00;99130.38;;;18.21;100.00
57234;BME280;43090;52.604;13.318;2023-08-01T06:37:27;99128.34;;;18.30;100.00
57234;BME280;43090;52.604;13.318;2023-08-01T06:39:55;99127.09;;;18.26;100.00
57234;BME280;43090;52.604;13.318;2023-08-01T06:42:24;99132.00;;;18.15;100.00
57234;BME280;43090;52.604;13.318;2023-08-01T06:44:51;99140.88;;;18.31;100.00
57234;BME280;43090;52.604;13.318;2023-08-01T06:47:17;99133.72;;;17.95;100.00
57234;BME280;43090;52.604;13.318;2023-08-01T06:49:44;99144.56;;;17.95;100.00
57234;BME280;43090;52.604;13.318;2023-08-01T06:52:14;99124.13;;;17.92;100.00
57234;BME280;43090;52.604;13.318;2023-08-01T06:54:41;99105.94;;;17.86;100.00
57234;BME280;43090;52.604;13.318;2023-08-01T06:57:07;99124.16;;;18.27;100.00
57234;BME280;43090;52.604;13.318;2023-08-01T06:59:34;99136.22;;;18.25;100.00
57234;BME280;43090;52.604;13.318;2023-08-01T07:02:00;99134.91;;;18.14;100.00
57234;BME280;43090;52.604;13.318;2023-08-01T07:04:30;99131.91;;;18.02;100.00
57234;BME280;43090;52.604;13.318;2023-08-01T07:06:56;99127.25;;;18.24;100.00
57234;BME280;43090;52.604;13.318;2023-08-01T07:09:23;99129.88;;;18.11;100.00
57234;BME280;43090;52.604;13.318;2023-08-01T07:11:49;99130.28;;;18.43;100.00
57234;BME280;43090;52.604;13.318;2023-08-01T07:14:16;99113.50;;;18.19;100.00
57234;BME280;43090;52.604;13.318;2023-08-01T07:16:44;99106.31;;;18.40;100.00
57234;BME280;43090;52.604;13.318;2023-08-01T07:19:11;99096.59;;;18.52;100.00
57234;BME280;43090;52.604;13.318;2023-08-01T07:21:40;99097.22;;;18.54;100.00
57234;BME280;43090;52.604;13.318;2023-08-01T07:24:26;99098.41;;;18.45;100.00
57234;BME280;43090;52.604;13.318;2023-08-01T07:26:56;99089.13;;;18.68;100.00
57234;BME280;43090;52.604;13.318;2023-08-01T07:29:25;99113.50;;;19.03;100.00
57234;BME280;43090;52.604;13.318;2023-08-01T07:32:21;99114.28;;;18.90;100.00
57234;BME280;43090;52.604;13.318;2023-08-01T07:34:48;99076.03;;;18.78;100.00
57234;BME280;43090;52.604;13.318;2023-08-01T07:37:15;99059.34;;;18.81;100.00
57234;BME280;43090;52.604;13.318;2023-08-01T07:39:42;99090.13;;;19.08;98.97
57234;BME280;43090;52.604;13.318;2023-08-01T07:42:08;99082.84;;;19.22;100.00
57234;BME280;43090;52.604;13.318;2023-08-01T07:44:35;99095.59;;;19.42;97.82
57234;BME280;43090;52.604;13.318;2023-08-01T07:47:06;99086.66;;;19.61;96.12
57234;BME280;43090;52.604;13.318;2023-08-01T07:49:33;99088.75;;;19.79;92.85
57234;BME280;43090;52.604;13.318;2023-08-01T07:52:00;99105.44;;;19.56;91.87
57234;BME280;43090;52.604;13.318;2023-08-01T07:58:06;99097.47;;;19.28;95.20
57234;BME280;43090;52.604;13.318;2023-08-01T08:00:42;99104.63;;;19.69;95.20
57234;BME280;43090;52.604;13.318;2023-08-01T08:03:38;99064.72;;;19.43;95.66
57234;BME280;43090;52.604;13.318;2023-08-01T08:06:08;99106.47;;;19.55;92.97
57234;BME280;43090;52.604;13.318;2023-08-01T08:08:37;99067.84;;;19.67;92.94
57234;BME280;43090;52.604;13.318;2023-08-01T08:11:04;99092.91;;;19.55;93.03
57234;BME280;43090;52.604;13.318;2023-08-01T08:13:41;99094.56;;;19.36;93.33
57234;BME280;43090;52.604;13.318;2023-08-01T08:16:11;99088.66;;;19.06;95.67
57234;BME280;43090;52.604;13.318;2023-08-01T08:18:39;99105.22;;;19.38;95.18
57234;BME280;43090;52.604;13.318;2023-08-01T08:21:05;99103.50;;;19.23;94.55
57234;BME280;43090;52.604;13.318;2023-08-01T08:23:49;99108.03;;;18.89;96.74
57234;BME280;43090;52.604;13.318;2023-08-01T08:34:52;99078.41;;;18.94;98.53
57234;BME280;43090;52.604;13.318;2023-08-01T08:41:52;99097.22;;;19.03;99.42
57234;BME280;43090;52.604;13.318;2023-08-01T08:44:19;99110.25;;;19.61;97.74
57234;BME280;43090;52.604;13.318;2023-08-01T08:46:53;99087.06;;;19.45;95.44
57234;BME280;43090;52.604;13.318;2023-08-01T08:49:21;99070.78;;;19.31;95.28
57234;BME280;43090;52.604;13.318;2023-08-01T08:51:48;99096.03;;;19.72;98.35
57234;BME280;43090;52.604;13.318;2023-08-01T08:54:16;99104.19;;;19.79;93.66
57234;BME280;43090;52.604;13.318;2023-08-01T08:56:43;99087.69;;;19.47;93.44
57234;BME280;43090;52.604;13.318;2023-08-01T08:59:11;99095.44;;;19.77;93.28
57234;BME280;43090;52.604;13.318;2023-08-01T09:01:38;99061.38;;;19.61;95.03
57234;BME280;43090;52.604;13.318;2023-08-01T09:04:06;99077.03;;;19.79;94.07
57234;BME280;43090;52.604;13.318;2023-08-01T09:06:46;99070.34;;;19.95;94.57
57234;BME280;43090;52.604;13.318;2023-08-01T09:09:17;99080.84;;;19.85;92.53
57234;BME280;43090;52.604;13.318;2023-08-01T09:11:49;99067.19;;;20.11;92.04
57234;BME280;43090;52.604;13.318;2023-08-01T09:14:17;99070.34;;;20.08;88.11
57234;BME280;43090;52.604;13.318;2023-08-01T09:16:44;99083.75;;;19.90;89.89
57234;BME280;43090;52.604;13.318;2023-08-01T09:19:26;99065.34;;;19.98;88.80
57234;BME280;43090;52.604;13.318;2023-08-01T09:30:44;99077.47;;;19.83;88.61
57234;BME280;43090;52.604;13.318;2023-08-01T09:34:06;99044.06;;;19.75;88.31
57234;BME280;43090;52.604;13.318;2023-08-01T09:45:30;99081.22;;;19.48;92.50
57234;BME280;43090;52.604;13.318;2023-08-01T09:56:45;99086.84;;;19.53;91.78
57234;BME280;43090;52.604;13.318;2023-08-01T09:59:13;99075.34;;;19.51;93.09
57234;BME280;43090;52.604;13.318;2023-08-01T10:01:44;99078.72;;;19.67;92.14
57234;BME280;43090;52.604;13.318;2023-08-01T10:04:12;99084.53;;;19.43;93.18
57234;BME280;43090;52.604;13.318;2023-08-01T10:06:43;99074.53;;;19.57;91.93
57234;BME280;43090;52.604;13.318;2023-08-01T10:09:12;99068.06;;;19.52;92.27
57234;BME280;43090;52.604;13.318;2023-08-01T10:11:40;99059.09;;;19.71;92.39
57234;BME280;43090;52.604;13.318;2023-08-01T10:14:07;99065.34;;;19.58;90.97
57234;BME280;43090;52.604;13.318;2023-08-01T10:16:34;99082.69;;;19.44;91.83
57234;BME280;43090;52.604;13.318;2023-08-01T10:19:06;99073.47;;;19.25;92.21
57234;BME280;43090;52.604;13.318;2023-08-01T10:21:32;99069.06;;;19.10;94.97
57234;BME280;43090;52.604;13.318;2023-08-01T10:23:59;99081.84;;;19.50;92.87
57234;BME280;43090;52.604;13.318;2023-08-01T10:26:26;99056.91;;;18.93;97.25
57234;BME280;43090;52.604;13.318;2023-08-01T10:28:52;99069.25;;;19.02;97.25
57234;BME280;43090;52.604;13.318;2023-08-01T10:31:19;99081.59;;;19.18;98.99
57234;BME280;43090;52.604;13.318;2023-08-01T10:33:48;99098.69;;;18.98;100.00
57234;BME280;43090;52.604;13.318;2023-08-01T10:36:22;99101.38;;;18.57;100.00
57234;BME280;43090;52.604;13.318;2023-08-01T10:38:52;99096.13;;;18.42;100.00
57234;BME280;43090;52.604;13.318;2023-08-01T10:41:30;99114.72;;;18.58;100.00
57234;BME280;43090;52.604;13.318;2023-08-01T10:44:13;99109.56;;;18.70;100.00
57234;BME280;43090;52.604;13.318;2023-08-01T10:46:55;99113.25;;;18.56;100.00
57234;BME280;43090;52.604;13.318;2023-08-01T10:49:41;99124.38;;;18.68;100.00
57234;BME280;43090;52.604;13.318;2023-08-01T10:52:23;99126.59;;;18.92;100.00
57234;BME280;43090;52.604;13.318;2023-08-01T10:54:59;99121.19;;;18.99;100.00
57234;BME280;43090;52.604;13.318;2023-08-01T10:57:28;99128.88;;;18.47;100.00
57234;BME280;43090;52.604;13.318;2023-08-01T10:59:56;99102.97;;;18.38;100.00
57234;BME280;43090;52.604;13.318;2023-08-01T11:02:25;99115.50;;;17.82;100.00
57234;BME280;43090;52.604;13.318;2023-08-01T11:05:05;99129.47;;;18.07;100.00
57234;BME280;43090;52.604;13.318;2023-08-01T11:07:33;99136.19;;;18.18;100.00
57234;BME280;43090;52.604;13.318;2023-08-01T11:10:11;99135.38;;;18.24;100.00
57234;BME280;43090;52.604;13.318;2023-08-01T11:12:39;99133.50;;;18.18;100.00
57234;BME280;43090;52.604;13.318;2023-08-01T11:15:11;99142.72;;;18.30;100.00
57234;BME280;43090;52.604;13.318;2023-08-01T11:17:39;99129.53;;;18.21;100.00
57234;BME280;43090;52.604;13.318;2023-08-01T11:20:07;99131.47;;;18.34;100.00
57234;BME280;43090;52.604;13.318;2023-08-01T11:22:35;99138.19;;;18.38;100.00
57234;BME280;43090;52.604;13.318;2023-08-01T11:25:02;99121.78;;;18.46;100.00
57234;BME280;43090;52.604;13.318;2023-08-01T11:27:29;99122.53;;;18.75;100.00
57234;BME280;43090;52.604;13.318;2023-08-01T11:29:56;99131.97;;;18.44;100.00
57234;BME280;43090;52.604;13.318;2023-08-01T11:32:32;99152.31;;;19.10;100.00
57234;BME280;43090;52.604;13.318;2023-08-01T11:35:07;99153.84;;;18.42;100.00
57234;BME280;43090;52.604;13.318;2023-08-01T11:37:34;99148.28;;;18.57;100.00
57234;BME280;43090;52.604;13.318;2023-08-01T11:40:23;99161.97;;;18.77;97.35
57234;BME280;43090;52.604;13.318;2023-08-01T11:42:50;99152.38;;;18.81;99.58
57234;BME280;43090;52.604;13.318;2023-08-01T11:45:20;99141.03;;;19.06;100.00
57234;BME280;43090;52.604;13.318;2023-08-01T11:47:48;99133.75;;;19.13;98.82
57234;BME280;43090;52.604;13.318;2023-08-01T11:50:20;99127.56;;;19.40;95.48
57234;BME280;43090;52.604;13.318;2023-08-01T11:52:48;99144.81;;;19.12;96.95
57234;BME280;43090;52.604;13.318;2023-08-01T11:55:25;99136.34;;;18.87;95.97
57234;BME280;43090;52.604;13.318;2023-08-01T11:57:56;99104.00;;;18.85;96.27
57234;BME280;43090;52.604;13.318;2023-08-01T12:03:59;99120.75;;;18.95;93.64
57234;BME280;43090;52.604;13.318;2023-08-01T12:06:37;99114.53;;;19.02;94.43
57234;BME280;43090;52.604;13.318;2023-08-01T12:09:11;99148.88;;;19.56;93.91
57234;BME280;43090;52.604;13.318;2023-08-01T12:11:46;99128.38;;;19.40;92.61
57234;BME280;43090;52.604;13.318;2023-08-01T12:14:14;99148.78;;;19.09;91.04
57234;BME280;43090;52.604;13.318;2023-08-01T12:16:46;99124.84;;;19.33;88.86
57234;BME280;43090;52.604;13.318;2023-08-01T12:19:22;99146.47;;;19.13;89.32
57234;BME280;43090;52.604;13.318;2023-08-01T12:21:59;99143.53;;;18.59;87.91
57234;BME280;43090;52.604;13.318;2023-08-01T12:24:31;99151.63;;;18.94;89.63
57234;BME280;43090;52.604;13.318;2023-08-01T12:26:57;99179.22;;;19.11;89.89
57234;BME280;43090;52.604;13.318;2023-08-01T12:29:26;99154.66;;;19.20;90.33
57234;BME280;43090;52.604;13.318;2023-08-01T12:31:53;99160.94;;;19.34;90.52
57234;BME280;43090;52.604;13.318;2023-08-01T12:34:19;99164.72;;;19.46;88.48
57234;BME280;43090;52.604;13.318;2023-08-01T12:36:46;99161.16;;;19.45;86.88
57234;BME280;43090;52.604;13.318;2023-08-01T12:39:12;99158.28;;;19.74;87.15
57234;BME280;43090;52.604;13.318;2023-08-01T12:41:39;99166.78;;;19.37;86.72
57234;BME280;43090;52.604;13.318;2023-08-01T12:44:05;99168.31;;;19.67;85.91
57234;BME280;43090;52.604;13.318;2023-08-01T12:46:32;99159.97;;;19.81;85.08
57234;BME280;43090;52.604;13.318;2023-08-01T12:49:21;99171.84;;;19.74;87.98
57234;BME280;43090;52.604;13.318;2023-08-01T12:51:48;99157.66;;;19.72;84.83
57234;BME280;43090;52.604;13.318;2023-08-01T12:54:17;99154.72;;;19.67;85.17
57234;BME280;43090;52.604;13.318;2023-08-01T12:56:43;99155.97;;;19.57;85.31
57234;BME280;43090;52.604;13.318;2023-08-01T12:59:10;99168.50;;;19.65;85.39
57234;BME280;43090;52.604;13.318;2023-08-01T13:01:36;99167.41;;;19.33;87.08
57234;BME280;43090;52.604;13.318;2023-08-01T13:04:03;99173.56;;;19.95;84.27
57234;BME280;43090;52.604;13.318;2023-08-01T13:06:29;99144.31;;;19.77;85.40
57234;BME280;43090;52.604;13.318;2023-08-01T13:08:56;99150.59;;;19.84;84.60
57234;BME280;43090;52.604;13.318;2023-08-01T13:11:27;99157.06;;;20.03;82.11
57234;BME280;43090;52.604;13.318;2023-08-01T13:13:55;99155.81;;;19.92;82.23
57234;BME280;43090;52.604;13.318;2023-08-01T13:16:21;99164.38;;;20.16;82.67
57234;BME280;43090;52.604;13.318;2023-08-01T13:18:48;99134.50;;;19.89;82.57
57234;BME280;43090;52.604;13.318;2023-08-01T13:21:17;99166.66;;;20.26;83.61
57234;BME280;43090;52.604;13.318;2023-08-01T13:23:43;99176.25;;;20.48;80.72
57234;BME280;43090;52.604;13.318;2023-08-01T13:26:10;99175.22;;;20.43;77.20
57234;BME280;43090;52.604;13.318;2023-08-01T13:28:36;99166.59;;;20.59;79.21
57234;BME280;43090;52.604;13.318;2023-08-01T13:31:03;99173.25;;;20.84;81.73
57234;BME280;43090;52.604;13.318;2023-08-01T13:33:33;99146.88;;;20.91;77.86
57234;BME280;43090;52.604;13.318;2023-08-01T13:36:00;99176.88;;;21.16;78.64
57234;BME280;43090;52.604;13.318;2023-08-01T13:38:31;99166.78;;;20.64;76.08
57234;BME280;43090;52.604;13.318;2023-08-01T13:40:59;99177.25;;;20.81;77.79
57234;BME280;43090;52.604;13.318;2023-08-01T13:43:26;99173.00;;;20.99;77.46
57234;BME280;43090;52.604;13.318;2023-08-01T13:45:53;99161.06;;;21.00;77.26
57234;BME280;43090;52.604;13.318;2023-08-01T13:48:20;99188.97;;;20.75;77.40
57234;BME280;43090;52.604;13.318;2023-08-01T13:50:49;99174.50;;;20.88;75.45
57234;BME280;43090;52.604;13.318;2023-08-01T13:53:18;99176.81;;;20.84;74.88
57234;BME280;43090;52.604;13.318;2023-08-01T13:55:45;99149.25;;;21.12;75.68
57234;BME280;43090;52.604;13.318;2023-08-01T13:58:21;99145.88;;;21.24;75.01
57234;BME280;43090;52.604;13.318;2023-08-01T14:00:48;99167.63;;;21.62;73.94
57234;BME280;43090;52.604;13.318;2023-08-01T14:03:15;99136.78;;;21.37;71.73